Pays
Station

 

Conditions  météo  pour  Yurimaguas  -  Pérou    Pérou

  
31 °C
    
 
 

METAR pour Yurimaguas :

SPMS 192200Z 10004KT CAVOK 31/21 Q1015 RMK TX31.6 BIRD HAZARD RWY 09/27 PP000

 

Voici le bulletin pour Yurimaguas - Pérou.
 
Le bulletin a été fait il y a 4 heures et 2 minutes, à 22:00 UTC .
Le vent soufflait à la vitesse de 2.1 mètres par seconde de Est (100°).
 
La température était de 31 °C, avec un point de rosée à 21 °C.
La température ressentie était de 34 °C.
 
La pression atmosphérique était de 1015 hPa.
L'humidité relative était de 55.4%.
 
Il y avait pas de nuages en-dessous de 1500 mètres et pas de cumulonimbus.
 
La visibilité globale était de supérieure à 10 kilomètres.
 

 
 
 

Pays :   A   B   C   D   E   F   G   H   I   J   K   L   M   N   O   P   Q   R   S   T   U   V   W   Y   Z

 

Partenaires :  Info Météo avec Met'info
Météo Marine avec MeteoMarine.net
Infos Site  |  Infos Légales  |  Crédits  |  Confidentialité
Contactez-nous  |  Ajouter aux favoris
© 2013-2018 METAR - Tous droits réservés